Time;durP1;ratioP1;P1;durP2;ratioP2;P2;SDS_P1;SDS_P2;PMS_P1;PMS_P2;Temp;Humidity;BMP_temperature;BMP_pressure;BME280_temperature;BME280_humidity;BME280_pressure;Samples;Min_cycle;Max_cycle;Signal;HPM_P1;HPM_P2
2023/05/24 00:01:51;;;;;;;14.30;10.77;;;12.80;99.90;;;;;;5015284;28;20053;-60
2023/05/24 00:04:18;;;;;;;12.20;10.90;;;12.80;99.90;;;;;;5016315;28;20040;-60
2023/05/24 00:06:44;;;;;;;12.70;10.27;;;12.70;99.90;;;;;;5015761;28;20026;-60
2023/05/24 00:09:13;;;;;;;15.02;11.38;;;12.70;99.90;;;;;;5015524;28;20026;-60
2023/05/24 00:11:39;;;;;;;12.30;10.60;;;12.70;99.90;;;;;;5015291;28;20064;-60
2023/05/24 00:14:04;;;;;;;13.10;9.10;;;12.60;99.90;;;;;;5015216;28;20458;-60
2023/05/24 00:16:30;;;;;;;10.82;9.73;;;12.60;99.90;;;;;;5014525;28;20440;-60
2023/05/24 00:18:57;;;;;;;13.38;10.88;;;12.60;99.90;;;;;;5015125;28;20531;-60
2023/05/24 00:21:22;;;;;;;19.75;11.35;;;12.50;99.90;;;;;;5015164;28;20377;-60
2023/05/24 00:23:50;;;;;;;11.90;10.15;;;12.40;99.90;;;;;;5014778;28;20029;-60
2023/05/24 00:26:16;;;;;;;12.23;9.75;;;12.50;99.90;;;;;;5014852;28;20109;-60
2023/05/24 00:28:42;;;;;;;14.05;9.77;;;12.50;99.90;;;;;;5013583;28;20156;-60
2023/05/24 00:31:07;;;;;;;12.38;9.10;;;12.50;99.90;;;;;;5013621;28;20030;-60
2023/05/24 00:33:33;;;;;;;12.35;9.18;;;12.40;99.90;;;;;;5014915;28;20042;-60
2023/05/24 00:35:59;;;;;;;12.07;9.23;;;12.40;99.90;;;;;;5014517;28;20034;-60
2023/05/24 00:38:25;;;;;;;14.20;9.73;;;12.40;99.90;;;;;;5014939;28;20030;-60
2023/05/24 00:40:52;;;;;;;12.07;9.50;;;12.50;99.90;;;;;;5014457;28;20022;-59
2023/05/24 00:43:18;;;;;;;12.13;9.25;;;12.40;99.90;;;;;;5015169;28;20034;-60
2023/05/24 00:45:43;;;;;;;14.95;9.63;;;12.50;99.90;;;;;;5014430;28;20029;-60
2023/05/24 00:48:10;;;;;;;12.15;9.20;;;12.50;99.90;;;;;;5014721;28;20022;-60
2023/05/24 00:50:37;;;;;;;13.15;9.35;;;12.60;99.90;;;;;;5014595;28;20101;-60
2023/05/24 00:53:03;;;;;;;9.82;8.82;;;12.60;99.90;;;;;;5014778;28;20038;-60
2023/05/24 00:55:29;;;;;;;13.88;9.82;;;12.60;99.90;;;;;;5014647;28;20026;-60
2023/05/24 00:57:56;;;;;;;11.32;9.95;;;12.70;99.90;;;;;;5014270;28;20030;-60
2023/05/24 01:00:22;;;;;;;12.57;9.85;;;12.70;99.90;;;;;;5014453;28;20109;-60
2023/05/24 01:02:49;;;;;;;11.63;8.88;;;12.80;99.90;;;;;;5014310;28;20030;-60
2023/05/24 01:05:16;;;;;;;28.52;11.48;;;12.70;99.90;;;;;;5014434;28;20450;-60
2023/05/24 01:08:08;;;;;;;10.45;9.45;;;12.80;99.90;;;;;;5013236;28;20022;-60
2023/05/24 01:10:47;;;;;;;10.13;9.02;;;12.80;99.90;;;;;;5014093;28;20026;-60
2023/05/24 01:13:34;;;;;;;15.32;10.48;;;12.80;99.90;;;;;;5014131;28;20022;-60
2023/05/24 01:16:09;;;;;;;15.85;9.70;;;12.80;99.90;;;;;;5014018;28;20025;-59
2023/05/24 01:18:43;;;;;;;21.00;9.48;;;12.80;99.90;;;;;;5014012;28;20465;-60
2023/05/24 01:21:11;;;;;;;13.90;9.45;;;12.90;99.90;;;;;;5013965;28;20036;-60
2023/05/24 01:23:54;;;;;;;11.98;9.13;;;12.90;99.90;;;;;;5014061;28;20029;-60
2023/05/24 01:26:38;;;;;;;13.68;8.95;;;13.00;99.90;;;;;;5013920;28;20084;-59
2023/05/24 01:29:05;;;;;;;12.73;8.90;;;13.00;99.90;;;;;;5012611;28;20046;-60
2023/05/24 01:31:32;;;;;;;11.63;8.77;;;13.00;99.90;;;;;;5013750;28;20072;-60
2023/05/24 01:33:57;;;;;;;8.80;7.85;;;13.10;99.90;;;;;;5013902;28;20121;-60
2023/05/24 01:36:23;;;;;;;12.65;8.52;;;13.20;98.70;;;;;;5013539;28;20113;-60
2023/05/24 01:38:50;;;;;;;12.00;8.65;;;13.10;98.60;;;;;;5012285;28;20637;-60
2023/05/24 01:41:41;;;;;;;11.23;8.68;;;13.10;99.60;;;;;;5012415;28;20457;-59
2023/05/24 01:44:38;;;;;;;13.07;9.57;;;13.10;98.40;;;;;;4976210;28;20046;-60
2023/05/24 01:47:07;;;;;;;37.88;9.65;;;13.00;98.90;;;;;;5013600;28;20030;-60
2023/05/24 01:49:39;;;;;;;14.60;8.50;;;13.00;99.50;;;;;;5012167;28;20376;-60
2023/05/24 01:52:11;;;;;;;9.45;8.25;;;12.90;99.20;;;;;;5013281;28;20026;-59
2023/05/24 01:54:39;;;;;;;10.43;8.98;;;12.90;98.80;;;;;;5012858;28;20021;-58
2023/05/24 01:57:09;;;;;;;11.85;9.07;;;12.70;98.30;;;;;;5010937;28;20029;-59
2023/05/24 01:59:35;;;;;;;11.70;9.27;;;12.70;99.90;;;;;;5012388;28;20049;-60
2023/05/24 02:02:01;;;;;;;11.98;8.75;;;12.60;99.90;;;;;;5012814;28;20033;-60
2023/05/24 02:04:27;;;;;;;9.95;8.55;;;12.50;99.90;;;;;;5013165;28;20099;-60
2023/05/24 02:06:53;;;;;;;10.20;8.75;;;12.50;99.90;;;;;;5012826;28;20041;-60
2023/05/24 02:09:18;;;;;;;10.90;9.05;;;12.40;99.90;;;;;;5013288;28;20462;-60
2023/05/24 02:11:44;;;;;;;17.85;8.52;;;12.40;99.90;;;;;;5012843;28;20041;-60
2023/05/24 02:14:10;;;;;;;11.65;9.55;;;12.30;99.90;;;;;;5013099;28;20025;-60
2023/05/24 02:16:41;;;;;;;11.40;9.13;;;12.30;99.90;;;;;;5013062;28;20688;-60
2023/05/24 02:19:07;;;;;;;10.73;9.10;;;12.30;99.90;;;;;;5012795;28;20049;-60
2023/05/24 02:21:33;;;;;;;13.77;8.90;;;12.40;99.90;;;;;;5011474;28;20041;-60
2023/05/24 02:23:59;;;;;;;10.20;9.20;;;12.50;99.90;;;;;;5012840;28;20117;-60
2023/05/24 02:26:25;;;;;;;12.20;8.60;;;12.50;99.90;;;;;;5012825;28;20038;-60
2023/05/24 02:28:50;;;;;;;13.15;8.88;;;12.70;99.90;;;;;;5012785;28;20552;-60
2023/05/24 02:31:16;;;;;;;13.95;9.13;;;12.70;99.90;;;;;;5012665;28;20072;-60
2023/05/24 02:33:42;;;;;;;13.50;8.88;;;12.70;99.90;;;;;;5012618;28;20029;-60
2023/05/24 02:36:08;;;;;;;9.38;8.10;;;12.80;99.90;;;;;;5012453;28;20037;-59
2023/05/24 02:38:36;;;;;;;13.45;7.80;;;12.80;99.90;;;;;;5012540;28;20056;-60
2023/05/24 02:41:02;;;;;;;9.70;8.70;;;12.90;99.60;;;;;;5012373;28;20041;-61
2023/05/24 02:43:28;;;;;;;8.68;7.75;;;13.00;98.00;;;;;;5012520;28;20022;-60
2023/05/24 02:45:54;;;;;;;10.23;8.43;;;13.10;96.80;;;;;;5012495;28;20030;-60
2023/05/24 02:48:19;;;;;;;13.27;8.30;;;13.00;96.60;;;;;;5012549;28;20445;-60
2023/05/24 02:50:45;;;;;;;14.18;8.70;;;13.10;97.60;;;;;;5012063;28;20093;-60
2023/05/24 02:53:11;;;;;;;9.50;8.35;;;13.00;97.50;;;;;;5012337;28;20018;-60
2023/05/24 02:55:36;;;;;;;9.13;8.15;;;13.00;96.70;;;;;;5011058;28;20041;-60
2023/05/24 02:58:02;;;;;;;11.07;8.45;;;13.00;97.20;;;;;;5012193;28;20018;-59
2023/05/24 03:00:28;;;;;;;10.55;8.35;;;13.10;96.40;;;;;;5012388;28;20584;-60
2023/05/24 03:02:55;;;;;;;11.18;9.00;;;13.10;96.20;;;;;;5012004;28;20389;-60
2023/05/24 03:05:21;;;;;;;11.38;8.65;;;13.10;97.10;;;;;;5012095;28;20022;-60
2023/05/24 03:07:46;;;;;;;11.55;8.68;;;13.10;97.80;;;;;;5011941;28;20032;-60
2023/05/24 03:10:12;;;;;;;15.07;8.32;;;13.20;97.10;;;;;;5012429;28;20033;-60
2023/05/24 03:12:38;;;;;;;11.60;8.32;;;13.20;94.90;;;;;;5012042;28;20105;-60
2023/05/24 03:15:04;;;;;;;12.63;8.27;;;13.20;95.50;;;;;;5012024;28;20021;-59
2023/05/24 03:17:30;;;;;;;14.85;8.68;;;13.20;95.00;;;;;;5011928;28;20056;-59
2023/05/24 03:19:58;;;;;;;8.80;7.53;;;13.20;94.40;;;;;;5012016;28;20081;-60
2023/05/24 03:22:24;;;;;;;9.75;8.75;;;13.20;94.40;;;;;;5011889;28;20022;-59
2023/05/24 03:24:49;;;;;;;18.52;9.00;;;13.20;94.70;;;;;;5011925;28;20026;-60
2023/05/24 03:27:15;;;;;;;10.15;8.55;;;13.20;95.30;;;;;;5011922;28;20038;-59
2023/05/24 03:29:40;;;;;;;9.77;8.77;;;13.20;96.70;;;;;;5011722;28;20461;-60
2023/05/24 03:32:06;;;;;;;13.48;9.18;;;13.20;96.90;;;;;;5011557;28;20029;-59
2023/05/24 03:34:32;;;;;;;11.68;8.63;;;13.10;97.90;;;;;;5011996;28;20106;-59
2023/05/24 03:36:57;;;;;;;9.63;8.63;;;13.20;96.80;;;;;;5011602;28;20053;-59
2023/05/24 03:39:23;;;;;;;8.70;7.78;;;13.20;96.50;;;;;;5011889;28;20030;-59
2023/05/24 03:41:48;;;;;;;12.55;9.32;;;13.20;96.60;;;;;;5011491;28;20401;-60
2023/05/24 03:44:15;;;;;;;16.08;8.50;;;13.20;97.20;;;;;;5011699;28;20038;-59
2023/05/24 03:46:41;;;;;;;11.00;8.23;;;13.20;96.50;;;;;;5011556;28;20539;-59
2023/05/24 03:49:06;;;;;;;9.18;8.27;;;13.20;96.50;;;;;;5011651;28;20355;-59
2023/05/24 03:51:32;;;;;;;9.77;7.93;;;13.20;95.60;;;;;;5011696;28;20030;-60
2023/05/24 03:53:58;;;;;;;12.82;9.23;;;13.20;95.20;;;;;;5011586;28;20033;-58
2023/05/24 03:56:25;;;;;;;11.93;7.75;;;13.20;95.80;;;;;;5011652;28;20018;-60
2023/05/24 03:58:51;;;;;;;9.93;8.25;;;13.20;96.00;;;;;;5011490;28;20068;-59
2023/05/24 04:01:18;;;;;;;12.68;8.65;;;13.30;96.40;;;;;;5011579;28;20116;-60
2023/05/24 04:03:44;;;;;;;11.77;8.20;;;13.20;95.60;;;;;;5011336;28;20030;-60
2023/05/24 04:06:14;;;;;;;13.48;8.48;;;13.20;94.60;;;;;;5011376;28;20478;-59
2023/05/24 04:08:40;;;;;;;9.63;7.93;;;13.30;95.20;;;;;;5010462;28;20046;-60
2023/05/24 04:11:06;;;;;;;10.88;8.45;;;13.30;94.80;;;;;;5009605;28;20401;-60
2023/05/24 04:13:31;;;;;;;10.48;8.40;;;13.30;94.00;;;;;;5011205;28;20030;-60
2023/05/24 04:15:57;;;;;;;10.50;9.43;;;13.30;93.40;;;;;;5010776;28;20026;-60
2023/05/24 04:18:23;;;;;;;8.98;8.07;;;13.40;93.40;;;;;;5011634;28;20022;-60
2023/05/24 04:20:48;;;;;;;10.75;7.82;;;13.40;93.40;;;;;;5011556;28;20064;-60
2023/05/24 04:23:14;;;;;;;9.95;8.60;;;13.50;94.30;;;;;;5011469;28;20034;-60
2023/05/24 04:25:41;;;;;;;12.00;8.93;;;13.40;93.10;;;;;;5011296;28;20029;-58
2023/05/24 04:28:07;;;;;;;11.63;8.27;;;13.40;93.70;;;;;;5011201;28;20037;-60
2023/05/24 04:30:32;;;;;;;9.75;8.75;;;13.40;93.00;;;;;;5011220;28;20030;-59
2023/05/24 04:32:58;;;;;;;10.75;9.05;;;13.40;93.10;;;;;;5009735;28;20026;-60
2023/05/24 04:35:24;;;;;;;10.00;9.00;;;13.50;92.70;;;;;;5009940;28;20018;-60
2023/05/24 04:37:50;;;;;;;11.68;8.30;;;13.60;91.80;;;;;;5011507;28;20065;-59
2023/05/24 04:40:19;;;;;;;11.52;9.20;;;13.50;87.40;;;;;;5011160;28;20029;-60
2023/05/24 04:42:45;;;;;;;11.00;9.68;;;13.50;88.70;;;;;;5012497;28;20056;-59
2023/05/24 04:45:11;;;;;;;12.90;7.93;;;13.60;89.40;;;;;;5014720;28;20026;-60
2023/05/24 04:47:36;;;;;;;8.98;8.13;;;13.60;81.70;;;;;;5014454;28;20026;-59
2023/05/24 04:50:02;;;;;;;11.80;8.38;;;13.60;78.60;;;;;;5014490;28;20026;-60
2023/05/24 04:52:29;;;;;;;12.13;7.28;;;13.60;86.90;;;;;;5014188;28;20441;-59
2023/05/24 04:54:56;;;;;;;9.10;8.30;;;13.70;75.80;;;;;;5011345;28;20037;-60
2023/05/24 04:57:22;;;;;;;9.48;8.00;;;13.70;84.10;;;;;;5014040;28;20845;-60
2023/05/24 04:59:48;;;;;;;9.02;8.13;;;13.60;81.80;;;;;;5014157;28;20034;-60
2023/05/24 05:02:13;;;;;;;11.05;8.70;;;13.60;82.20;;;;;;5014149;28;20018;-60
2023/05/24 05:04:39;;;;;;;12.32;8.07;;;13.60;86.00;;;;;;5014194;28;20028;-60
2023/05/24 05:07:05;;;;;;;10.98;8.07;;;13.50;80.90;;;;;;5012387;28;20473;-60
2023/05/24 05:09:31;;;;;;;8.43;6.93;;;13.50;81.30;;;;;;5011418;28;20769;-59
2023/05/24 05:11:57;;;;;;;7.80;7.10;;;13.50;74.80;;;;;;5012239;28;20025;-59
2023/05/24 05:14:22;;;;;;;12.18;7.63;;;13.60;73.60;;;;;;5013868;28;20116;-60
2023/05/24 05:16:48;;;;;;;10.57;7.20;;;13.60;74.50;;;;;;5013831;28;20048;-58
2023/05/24 05:19:14;;;;;;;11.43;7.18;;;13.70;67.20;;;;;;5013918;28;20025;-60
2023/05/24 05:21:40;;;;;;;9.45;7.10;;;13.70;69.50;;;;;;5014075;28;20030;-59
2023/05/24 05:24:06;;;;;;;8.18;7.30;;;13.70;68.10;;;;;;5013764;28;20025;-60
2023/05/24 05:26:32;;;;;;;12.48;7.50;;;13.70;67.50;;;;;;5013374;28;20037;-60
2023/05/24 05:28:57;;;;;;;8.48;7.07;;;13.80;67.20;;;;;;5013318;28;20029;-61
2023/05/24 05:31:23;;;;;;;8.27;7.43;;;13.90;64.50;;;;;;5013431;28;20022;-60
2023/05/24 05:33:49;;;;;;;7.30;6.60;;;14.00;70.10;;;;;;5013446;28;20014;-60
2023/05/24 05:36:15;;;;;;;8.40;7.03;;;14.10;46.90;;;;;;5013328;28;20058;-60
2023/05/24 05:38:41;;;;;;;7.57;6.50;;;14.10;59.10;;;;;;5011521;28;20030;-60
2023/05/24 05:41:07;;;;;;;9.63;6.15;;;14.10;52.60;;;;;;5012234;28;20036;-59
2023/05/24 05:43:33;;;;;;;8.80;6.68;;;14.20;61.10;;;;;;5011766;28;20030;-59
2023/05/24 05:45:59;;;;;;;6.72;6.03;;;14.20;52.10;;;;;;5013485;28;20038;-60
2023/05/24 05:48:25;;;;;;;8.07;7.03;;;14.20;46.50;;;;;;5013350;28;20506;-59
2023/05/24 05:50:51;;;;;;;7.20;6.60;;;14.20;47.00;;;;;;5013273;28;20034;-59
2023/05/24 05:53:17;;;;;;;7.40;6.28;;;14.20;58.40;;;;;;5013337;28;20018;-60
2023/05/24 05:55:42;;;;;;;7.95;7.18;;;14.30;49.80;;;;;;5012416;28;20633;-60
2023/05/24 05:58:08;;;;;;;6.88;6.18;;;14.40;37.70;;;;;;5011745;28;20026;-59
2023/05/24 06:00:34;;;;;;;5.97;5.38;;;14.50;37.10;;;;;;5013075;28;20026;-60
2023/05/24 06:02:59;;;;;;;6.93;6.13;;;14.60;8.00;;;;;;5013051;28;20022;-60
2023/05/24 06:05:25;;;;;;;10.70;7.38;;;14.70;16.40;;;;;;5011732;28;20055;-60
2023/05/24 06:08:10;;;;;;;9.55;7.57;;;14.70;20.10;;;;;;5012814;28;20026;-60
2023/05/24 06:10:37;;;;;;;10.10;6.53;;;14.70;52.40;;;;;;5012708;28;20449;-60
2023/05/24 06:13:03;;;;;;;8.23;6.20;;;14.80;28.90;;;;;;5012501;28;20026;-60
2023/05/24 06:15:29;;;;;;;15.63;6.97;;;14.80;27.00;;;;;;5012844;28;20034;-60
2023/05/24 06:17:55;;;;;;;8.30;7.43;;;14.70;38.50;;;;;;5012610;28;20712;-60
2023/05/24 06:20:20;;;;;;;7.93;7.00;;;14.90;49.60;;;;;;5012872;28;20028;-60
2023/05/24 06:22:48;;;;;;;6.72;5.95;;;14.90;54.10;;;;;;5011208;28;20034;-60
2023/05/24 06:25:17;;;;;;;7.25;6.25;;;15.20;38.00;;;;;;5012574;28;20050;-60
2023/05/24 06:27:43;;;;;;;7.25;5.93;;;15.50;1.00;;;;;;5012366;28;20026;-60
2023/05/24 06:30:09;;;;;;;5.68;5.18;;;15.60;1.00;;;;;;5012296;28;20084;-60
2023/05/24 06:32:36;;;;;;;6.55;5.85;;;15.80;1.00;;;;;;5012585;28;20081;-60
2023/05/24 06:35:02;;;;;;;6.55;5.85;;;15.90;1.00;;;;;;5012464;28;20034;-60
2023/05/24 06:37:29;;;;;;;6.63;5.88;;;15.90;1.00;;;;;;5012327;28;20129;-60
2023/05/24 06:39:55;;;;;;;6.70;5.70;;;15.80;1.00;;;;;;5011976;28;20034;-59
2023/05/24 06:42:21;;;;;;;10.68;5.97;;;15.80;1.00;;;;;;5011164;28;20030;-60
2023/05/24 06:44:47;;;;;;;7.88;5.93;;;15.50;1.00;;;;;;5011857;28;20025;-59
2023/05/24 06:47:12;;;;;;;7.72;5.65;;;15.40;1.00;;;;;;5011485;28;20084;-60
2023/05/24 06:49:38;;;;;;;9.48;5.72;;;15.40;1.00;;;;;;5011898;28;20089;-59
2023/05/24 06:52:04;;;;;;;6.10;5.53;;;15.50;1.00;;;;;;5012293;28;20026;-60
2023/05/24 06:54:29;;;;;;;5.70;5.00;;;15.60;1.00;;;;;;5012012;28;20018;-60
2023/05/24 06:56:55;;;;;;;6.05;5.55;;;15.60;1.00;;;;;;5012144;28;20026;-61
2023/05/24 06:59:21;;;;;;;6.47;5.63;;;15.80;1.00;;;;;;5012105;28;20033;-61
2023/05/24 07:01:50;;;;;;;5.90;5.05;;;15.70;1.00;;;;;;5012086;28;20037;-61
2023/05/24 07:04:15;;;;;;;11.38;8.65;;;15.50;1.00;;;;;;5012242;28;20570;-61
2023/05/24 07:06:41;;;;;;;6.90;6.15;;;15.70;1.00;;;;;;5010819;28;20029;-60
2023/05/24 07:09:09;;;;;;;5.80;4.60;;;16.10;1.00;;;;;;5011870;28;20024;-61
2023/05/24 07:11:34;;;;;;;10.40;5.00;;;16.30;1.00;;;;;;5011967;28;20084;-61
2023/05/24 07:14:00;;;;;;;5.75;5.15;;;16.50;1.00;;;;;;5010853;28;20017;-61
2023/05/24 07:16:26;;;;;;;7.15;5.55;;;16.60;1.00;;;;;;5011486;28;20084;-61
2023/05/24 07:18:51;;;;;;;6.55;5.85;;;16.70;1.00;;;;;;5011977;28;20110;-61
2023/05/24 07:21:17;;;;;;;7.53;5.15;;;16.70;1.00;;;;;;5011978;28;20033;-61
2023/05/24 07:23:43;;;;;;;6.50;5.55;;;17.00;99.90;;;;;;5011023;28;20068;-60
2023/05/24 07:26:08;;;;;;;6.03;5.07;;;17.00;99.90;;;;;;5011450;28;20121;-61
2023/05/24 07:28:36;;;;;;;7.45;5.53;;;17.00;1.00;;;;;;5011483;28;20072;-60
2023/05/24 07:31:03;;;;;;;5.47;4.97;;;17.50;99.90;;;;;;5009788;28;20026;-59
2023/05/24 07:33:29;;;;;;;5.15;4.45;;;17.70;99.90;;;;;;5011453;28;20033;-60
2023/05/24 07:35:54;;;;;;;7.50;5.60;;;17.90;99.90;;;;;;5010767;28;20108;-61
2023/05/24 07:38:20;;;;;;;7.65;5.20;;;17.70;96.60;;;;;;5011123;28;20084;-60
2023/05/24 07:40:46;;;;;;;11.00;5.03;;;18.00;99.90;;;;;;5011240;28;20026;-61
2023/05/24 07:43:12;;;;;;;6.57;5.38;;;18.00;99.90;;;;;;5011443;28;20030;-60
2023/05/24 07:45:37;;;;;;;10.73;6.45;;;18.10;99.90;;;;;;5011368;28;20188;-61
2023/05/24 07:48:03;;;;;;;6.38;5.47;;;17.80;1.00;;;;;;5011123;28;20033;-60
2023/05/24 07:50:28;;;;;;;6.63;5.28;;;17.50;99.90;;;;;;5011555;28;20101;-60
2023/05/24 07:52:56;;;;;;;6.25;5.65;;;17.80;99.90;;;;;;5011501;28;20032;-61
2023/05/24 07:55:22;;;;;;;5.90;5.38;;;17.90;99.90;;;;;;5011398;28;20037;-61
2023/05/24 07:57:47;;;;;;;5.55;5.00;;;17.70;99.90;;;;;;5011341;28;20768;-61
2023/05/24 08:00:13;;;;;;;5.93;5.32;;;17.90;99.90;;;;;;5011456;28;20037;-61
2023/05/24 08:02:41;;;;;;;6.85;6.15;;;18.00;99.90;;;;;;5011264;28;20504;-60
2023/05/24 08:05:08;;;;;;;5.75;5.15;;;18.20;35.90;;;;;;5011064;28;20029;-61
2023/05/24 08:07:34;;;;;;;5.70;5.20;;;18.10;1.00;;;;;;5011253;28;20037;-61
2023/05/24 08:10:00;;;;;;;7.07;4.50;;;18.00;98.50;;;;;;5011268;28;20022;-61
2023/05/24 08:12:29;;;;;;;4.65;4.25;;;18.50;1.00;;;;;;5011278;28;20052;-61
2023/05/24 08:14:55;;;;;;;5.25;4.75;;;18.80;99.90;;;;;;5011119;28;20022;-61
2023/05/24 08:17:21;;;;;;;4.93;4.43;;;19.00;64.30;;;;;;5011904;28;20034;-60
2023/05/24 08:19:47;;;;;;;6.00;3.67;;;18.70;1.00;;;;;;5015351;28;20022;-59
2023/05/24 08:25:34;;;;;;;5.22;3.60;;;19.60;99.90;;;;;;5014806;28;20479;-60
2023/05/24 08:28:01;;;;;;;7.18;4.30;;;19.90;45.00;;;;;;5014419;28;20034;-60
2023/05/24 08:30:26;;;;;;;6.40;4.45;;;20.20;1.00;;;;;;5014844;28;20080;-61
2023/05/24 08:32:52;;;;;;;3.63;3.33;;;20.10;1.00;;;;;;5014895;28;20042;-60
2023/05/24 08:35:18;;;;;;;4.65;4.10;;;20.00;99.90;;;;;;5014778;28;20029;-60
2023/05/24 08:37:47;;;;;;;7.53;4.18;;;20.30;34.80;;;;;;5014261;28;20052;-61
2023/05/24 08:40:13;;;;;;;3.85;3.45;;;20.30;99.90;;;;;;5013669;28;20109;-61
2023/05/24 08:42:40;;;;;;;5.93;4.40;;;20.40;1.00;;;;;;5013725;28;20109;-61
2023/05/24 08:45:12;;;;;;;5.95;4.68;;;20.40;99.90;;;;;;5014051;28;20177;-60
2023/05/24 08:47:38;;;;;;;7.88;4.60;;;20.30;99.90;;;;;;5011295;28;20061;-60
2023/05/24 08:50:05;;;;;;;7.38;4.18;;;20.30;1.00;;;;;;5012711;28;20072;-61
2023/05/24 08:52:31;;;;;;;4.85;2.80;;;20.70;1.00;;;;;;5013290;28;20555;-61
2023/05/24 08:55:01;;;;;;;3.53;3.22;;;20.90;99.90;;;;;;5012797;28;20026;-61
2023/05/24 08:57:29;;;;;;;4.43;3.47;;;21.00;99.90;;;;;;5012272;28;20092;-60
2023/05/24 08:59:55;;;;;;;3.30;3.00;;;21.00;1.00;;;;;;5012441;28;20057;-60
2023/05/24 09:02:21;;;;;;;2.55;2.35;;;21.20;99.90;;;;;;5012714;28;20025;-61
2023/05/24 09:04:48;;;;;;;3.28;2.95;;;21.20;87.50;;;;;;5011531;28;20482;-61
2023/05/24 09:07:18;;;;;;;3.83;3.17;;;20.90;1.00;;;;;;5013064;28;20108;-61
2023/05/24 09:09:49;;;;;;;3.50;3.00;;;20.10;1.00;;;;;;5011376;28;20082;-61
2023/05/24 09:12:17;;;;;;;6.63;3.40;;;19.70;1.00;;;;;;5012794;28;20065;-60
2023/05/24 09:14:45;;;;;;;3.78;3.47;;;19.40;1.00;;;;;;5012367;28;20030;-61
2023/05/24 09:17:14;;;;;;;4.53;3.47;;;18.80;83.70;;;;;;5012868;28;20053;-61
2023/05/24 09:19:44;;;;;;;7.65;4.45;;;18.40;56.60;;;;;;5012428;28;20038;-61
2023/05/24 09:22:13;;;;;;;8.68;4.38;;;18.40;99.90;;;;;;5012841;28;20022;-61
2023/05/24 09:24:42;;;;;;;4.70;4.28;;;18.10;2.60;;;;;;5012398;28;20026;-61
2023/05/24 09:27:08;;;;;;;5.53;4.78;;;17.90;99.90;;;;;;5012514;28;20029;-61
2023/05/24 09:29:37;;;;;;;4.78;4.28;;;17.90;81.60;;;;;;5011449;28;20026;-61
2023/05/24 09:32:06;;;;;;;5.03;4.25;;;18.00;1.00;;;;;;5012207;28;20026;-61
2023/05/24 09:34:39;;;;;;;5.05;4.55;;;18.10;1.00;;;;;;5012389;28;20041;-60
2023/05/24 09:37:06;;;;;;;5.07;4.40;;;17.90;1.00;;;;;;5012062;28;20050;-60
2023/05/24 09:39:32;;;;;;;5.57;5.07;;;17.80;1.00;;;;;;5012204;28;20393;-61
2023/05/24 09:41:58;;;;;;;6.07;5.35;;;17.90;1.00;;;;;;5012052;28;20022;-61
2023/05/24 09:44:26;;;;;;;6.88;4.68;;;18.00;1.00;;;;;;5012197;28;20493;-61
2023/05/24 09:46:53;;;;;;;4.97;4.47;;;18.20;1.20;;;;;;5012002;28;20030;-61
2023/05/24 09:49:20;;;;;;;8.63;5.05;;;18.50;99.90;;;;;;5011695;28;20385;-61
2023/05/24 09:51:46;;;;;;;5.47;4.95;;;18.80;99.90;;;;;;5010398;28;20033;-60
2023/05/24 09:54:12;;;;;;;5.05;4.28;;;18.80;1.00;;;;;;5012500;28;20225;-60
2023/05/24 09:56:38;;;;;;;6.03;5.43;;;19.10;1.00;;;;;;5012548;28;20018;-60
2023/05/24 09:59:08;;;;;;;6.00;5.40;;;19.20;99.90;;;;;;5013531;28;20026;-60
2023/05/24 10:01:34;;;;;;;5.93;5.32;;;19.30;4.30;;;;;;5012695;28;20022;-61
2023/05/24 10:04:01;;;;;;;13.43;5.75;;;19.30;29.30;;;;;;5012907;28;20026;-61
2023/05/24 10:06:31;;;;;;;5.78;5.18;;;19.30;99.90;;;;;;5012129;28;20026;-61
2023/05/24 10:08:57;;;;;;;4.78;4.38;;;19.90;99.90;;;;;;5011449;28;20025;-61
2023/05/24 10:11:23;;;;;;;5.00;4.50;;;20.40;99.90;;;;;;5011678;28;20029;-61
2023/05/24 10:13:49;;;;;;;6.68;6.05;;;20.10;1.00;;;;;;5011542;28;20026;-60
2023/05/24 10:16:15;;;;;;;8.55;5.15;;;19.90;1.00;;;;;;5011546;28;20503;-61
2023/05/24 10:18:41;;;;;;;5.55;5.05;;;19.90;1.00;;;;;;5011159;28;20436;-61
2023/05/24 10:21:08;;;;;;;5.10;4.55;;;20.20;99.90;;;;;;5011786;28;20022;-61
2023/05/24 10:23:36;;;;;;;5.00;4.50;;;19.80;1.00;;;;;;5009709;28;20117;-61
2023/05/24 10:26:07;;;;;;;8.65;5.35;;;19.80;99.90;;;;;;5011118;28;20567;-61
2023/05/24 10:28:37;;;;;;;13.50;6.05;;;19.90;1.00;;;;;;5011262;28;20022;-61
2023/05/24 10:31:14;;;;;;;6.93;6.10;;;20.00;1.00;;;;;;5010973;28;20045;-61
2023/05/24 10:33:43;;;;;;;6.40;5.80;;;19.50;1.00;;;;;;5011249;28;20024;-60
2023/05/24 10:36:11;;;;;;;7.20;5.53;;;19.20;1.00;;;;;;5011203;28;20022;-61
2023/05/24 10:38:39;;;;;;;6.90;5.82;;;19.00;99.90;;;;;;5010846;28;20018;-61
2023/05/24 10:41:07;;;;;;;7.13;5.13;;;18.80;1.00;;;;;;5010863;28;20028;-61
2023/05/24 10:43:37;;;;;;;6.88;5.35;;;18.70;1.00;;;;;;5010738;28;20038;-61
2023/05/24 10:46:04;;;;;;;7.75;5.40;;;18.70;1.00;;;;;;5010993;28;20104;-60
2023/05/24 10:48:39;;;;;;;9.40;5.70;;;18.70;1.90;;;;;;5011446;28;20036;-61
2023/05/24 10:51:41;;;;;;;6.35;4.95;;;18.80;53.90;;;;;;5011123;28;20079;-61
2023/05/24 10:54:12;;;;;;;5.05;4.38;;;18.80;1.00;;;;;;5012002;28;20371;-61
2023/05/24 10:56:46;;;;;;;6.22;4.70;;;18.90;99.90;;;;;;5011512;28;20030;-61
2023/05/24 10:59:38;;;;;;;9.13;6.45;;;18.80;87.10;;;;;;5010723;28;20030;-61
2023/05/24 11:02:12;;;;;;;5.35;4.88;;;18.80;99.90;;;;;;5009826;28;20084;-61
2023/05/24 11:04:41;;;;;;;6.68;6.05;;;18.80;99.90;;;;;;5011108;28;20022;-61
2023/05/24 11:07:08;;;;;;;5.97;5.22;;;18.60;15.80;;;;;;5011127;28;20049;-61
2023/05/24 11:09:45;;;;;;;5.72;5.13;;;18.40;99.90;;;;;;5010851;28;20022;-60
2023/05/24 11:12:16;;;;;;;6.40;5.50;;;18.50;1.00;;;;;;5010615;28;20076;-61
2023/05/24 11:14:47;;;;;;;5.85;5.25;;;18.10;99.90;;;;;;5010197;28;20026;-61
2023/05/24 11:17:13;;;;;;;7.18;5.55;;;18.30;99.90;;;;;;5010669;28;20060;-61
2023/05/24 11:19:46;;;;;;;5.15;4.68;;;18.10;94.50;;;;;;5009533;28;20072;-61
2023/05/24 11:22:13;;;;;;;;;;;18.00;1.00;;;;;;5011456;28;20026;-61
2023/05/24 11:24:40;;;;;;;10.88;7.13;;;18.00;79.30;;;;;;5009383;28;19988;-61
2023/05/24 11:27:06;;;;;;;9.70;5.43;;;18.00;99.90;;;;;;5010437;28;20024;-61
2023/05/24 11:29:39;;;;;;;6.00;5.07;;;18.10;99.90;;;;;;5010300;28;20030;-61
2023/05/24 11:32:04;;;;;;;5.73;5.13;;;18.20;99.90;;;;;;5010237;28;20112;-61
2023/05/24 11:34:31;;;;;;;9.73;5.75;;;18.20;99.90;;;;;;5010508;28;20285;-61
2023/05/24 11:37:01;;;;;;;6.30;5.70;;;18.30;1.00;;;;;;5008745;28;20060;-61
2023/05/24 11:39:31;;;;;;;10.25;5.97;;;18.50;1.00;;;;;;5010407;28;20033;-61
2023/05/24 11:41:58;;;;;;;5.93;5.32;;;18.50;99.90;;;;;;5010043;28;20029;-61
2023/05/24 11:44:24;;;;;;;14.40;5.55;;;18.60;1.00;;;;;;5010183;28;20022;-60
2023/05/24 11:47:12;;;;;;;8.50;5.75;;;18.70;99.90;;;;;;5009820;28;20163;-61
2023/05/24 11:49:37;;;;;;;7.63;6.78;;;18.70;1.00;;;;;;5010539;28;20022;-60
2023/05/24 11:52:03;;;;;;;8.93;5.75;;;18.80;99.90;;;;;;5010952;28;20030;-61
2023/05/24 11:54:32;;;;;;;7.60;5.47;;;18.90;1.00;;;;;;5012861;28;20432;-61
2023/05/24 11:56:58;;;;;;;8.40;5.70;;;19.40;99.90;;;;;;5014103;28;20037;-61
2023/05/24 11:59:26;;;;;;;7.53;5.63;;;19.70;99.90;;;;;;5014067;28;20041;-61
2023/05/24 12:02:04;;;;;;;7.57;5.93;;;20.00;1.00;;;;;;5013917;28;20037;-61
2023/05/24 12:04:31;;;;;;;7.25;5.93;;;20.40;99.90;;;;;;5013683;28;20386;-61
2023/05/24 12:06:57;;;;;;;11.82;5.72;;;20.60;99.90;;;;;;5013975;28;20022;-61
2023/05/24 12:09:23;;;;;;;7.90;4.80;;;20.80;99.90;;;;;;5013830;28;20662;-61
2023/05/24 12:11:50;;;;;;;7.40;5.75;;;20.50;99.90;;;;;;5012395;28;20050;-61
2023/05/24 12:14:19;;;;;;;5.90;4.90;;;20.60;1.00;;;;;;5013953;28;20034;-61
2023/05/24 12:16:46;;;;;;;7.07;6.18;;;20.60;1.00;;;;;;5013634;28;20303;-60
2023/05/24 12:19:21;;;;;;;10.30;6.10;;;20.40;1.00;;;;;;5013734;28;20037;-61
2023/05/24 12:21:50;;;;;;;6.45;5.80;;;20.40;99.90;;;;;;5013406;28;20413;-61
2023/05/24 12:24:19;;;;;;;8.98;6.15;;;20.60;99.90;;;;;;5013589;28;20026;-61
2023/05/24 12:26:49;;;;;;;6.00;5.40;;;20.80;71.40;;;;;;5013365;28;20489;-61
2023/05/24 12:29:15;;;;;;;10.25;5.90;;;20.50;99.90;;;;;;5013559;28;20034;-61
2023/05/24 12:31:43;;;;;;;7.45;5.40;;;20.30;99.90;;;;;;5013612;28;20024;-60
2023/05/24 12:34:18;;;;;;;8.20;5.45;;;20.00;99.90;;;;;;5013458;28;20022;-61
2023/05/24 12:36:45;;;;;;;6.53;5.80;;;19.80;1.00;;;;;;5012953;28;20125;-61
2023/05/24 12:39:23;;;;;;;5.53;5.03;;;19.90;99.90;;;;;;5013522;28;20057;-61
2023/05/24 12:41:53;;;;;;;6.05;5.45;;;19.60;1.00;;;;;;5013531;28;20563;-60
2023/05/24 12:44:26;;;;;;;6.97;6.28;;;19.40;1.00;;;;;;5013281;28;20113;-61
2023/05/24 12:46:53;;;;;;;;;;;19.40;1.00;;;;;;5013546;28;20034;-61
2023/05/24 12:49:19;;;;;;;6.70;6.07;;;19.20;1.00;;;;;;5013383;28;20003;-61
2023/05/24 12:51:44;;;;;;;7.10;5.82;;;18.90;99.90;;;;;;5011753;28;20060;-61